KTMA/TMA METAR and TAF weather

Enter ICAO airport designator
Station Type Date Time Source
KTMA METAR 2023/06/03 00:35 UTC NOAA

KTMA 030035Z AUTO VRB04KT 10SM SCT095 26/18 A2982 RMK AO2 T02620176


Station Type Date Time Source
KTMA Decoded METAR 2023/06/03 00:35 UTC NOAA

Station name not available
Jun 02, 2023 - 08:35 PM EDT / 2023.06.03 0035 UTC
Wind: Variable at 5 MPH (4 KT):0
Visibility: 10 mile(s):0
Sky conditions: partly cloudy
Temperature: 79.2 F (26.2 C)
Dew Point: 63.7 F (17.6 C)
Relative Humidity: 59%
Pressure (altimeter): 29.82 in. Hg (1009 hPa)
ob: KTMA 030035Z AUTO VRB04KT 10SM SCT095 26/18 A2982 RMK AO2 T02620176
cycle: 0

Station Type Date Time Source
KTMA TAF UTC NOAA

Error!

Example: see airport list